sensor_id;sensor_type;location;lat;lon;timestamp;pressure;altitude;pressure_sealevel;temperature;humidity
34893;BME280;21106;52.240;20.902;2023-07-13T00:03:01;99670.53;;;22.06;63.08
34893;BME280;21106;52.240;20.902;2023-07-13T00:08:07;99667.66;;;22.02;63.15
34893;BME280;21106;52.240;20.902;2023-07-13T00:13:14;99667.15;;;22.00;63.26
34893;BME280;21106;52.240;20.902;2023-07-13T00:18:20;99655.33;;;21.98;63.35
34893;BME280;21106;52.240;20.902;2023-07-13T00:23:26;99655.67;;;21.95;63.34
34893;BME280;21106;52.240;20.902;2023-07-13T00:28:33;99648.85;;;21.93;63.44
34893;BME280;21106;52.240;20.902;2023-07-13T00:33:40;99654.90;;;21.89;63.58
34893;BME280;21106;52.240;20.902;2023-07-13T00:38:47;99657.84;;;21.84;63.85
34893;BME280;21106;52.240;20.902;2023-07-13T00:43:53;99655.72;;;21.78;63.86
34893;BME280;21106;52.240;20.902;2023-07-13T00:49:03;99656.80;;;21.71;64.02
34893;BME280;21106;52.240;20.902;2023-07-13T00:54:14;99645.66;;;21.67;64.00
34893;BME280;21106;52.240;20.902;2023-07-13T00:59:21;99649.69;;;21.67;63.93
34893;BME280;21106;52.240;20.902;2023-07-13T01:04:28;99642.83;;;21.65;64.07
34893;BME280;21106;52.240;20.902;2023-07-13T01:09:34;99645.73;;;21.66;64.09
34893;BME280;21106;52.240;20.902;2023-07-13T01:14:40;99654.11;;;21.67;64.22
34893;BME280;21106;52.240;20.902;2023-07-13T01:19:47;99654.66;;;21.65;64.32
34893;BME280;21106;52.240;20.902;2023-07-13T01:24:53;99659.23;;;21.64;64.25
34893;BME280;21106;52.240;20.902;2023-07-13T01:29:59;99649.44;;;21.64;64.34
34893;BME280;21106;52.240;20.902;2023-07-13T01:35:09;99655.63;;;21.62;64.43
34893;BME280;21106;52.240;20.902;2023-07-13T01:40:18;99670.52;;;21.55;64.47
34893;BME280;21106;52.240;20.902;2023-07-13T01:45:25;99679.72;;;21.52;64.72
34893;BME280;21106;52.240;20.902;2023-07-13T01:50:30;99676.96;;;21.52;64.70
34893;BME280;21106;52.240;20.902;2023-07-13T01:55:37;99672.70;;;21.51;64.78
34893;BME280;21106;52.240;20.902;2023-07-13T02:00:43;99686.61;;;21.46;64.71
34893;BME280;21106;52.240;20.902;2023-07-13T02:05:49;99676.62;;;21.43;64.78
34893;BME280;21106;52.240;20.902;2023-07-13T02:10:55;99678.23;;;21.42;64.87
34893;BME280;21106;52.240;20.902;2023-07-13T02:16:02;99687.19;;;21.39;65.00
34893;BME280;21106;52.240;20.902;2023-07-13T02:21:09;99691.61;;;21.36;65.25
34893;BME280;21106;52.240;20.902;2023-07-13T02:26:15;99688.67;;;21.34;65.13
34893;BME280;21106;52.240;20.902;2023-07-13T02:31:21;99688.93;;;21.35;65.22
34893;BME280;21106;52.240;20.902;2023-07-13T02:36:28;99692.52;;;21.34;65.33
34893;BME280;21106;52.240;20.902;2023-07-13T02:41:36;99696.19;;;21.33;65.34
34893;BME280;21106;52.240;20.902;2023-07-13T02:46:42;99692.30;;;21.31;65.29
34893;BME280;21106;52.240;20.902;2023-07-13T02:51:51;99693.77;;;21.33;65.30
34893;BME280;21106;52.240;20.902;2023-07-13T02:56:57;99684.61;;;21.34;65.34
34893;BME280;21106;52.240;20.902;2023-07-13T03:02:04;99685.97;;;21.37;65.26
34893;BME280;21106;52.240;20.902;2023-07-13T03:07:11;99680.83;;;21.40;65.45
34893;BME280;21106;52.240;20.902;2023-07-13T03:12:17;99682.36;;;21.41;65.51
34893;BME280;21106;52.240;20.902;2023-07-13T03:17:23;99691.70;;;21.42;65.37
34893;BME280;21106;52.240;20.902;2023-07-13T03:22:49;99682.08;;;21.40;65.54
34893;BME280;21106;52.240;20.902;2023-07-13T03:28:37;99681.73;;;21.40;65.61
34893;BME280;21106;52.240;20.902;2023-07-13T03:33:47;99677.52;;;21.42;65.45
34893;BME280;21106;52.240;20.902;2023-07-13T03:38:58;99668.64;;;21.45;65.54
34893;BME280;21106;52.240;20.902;2023-07-13T03:44:19;99661.58;;;21.49;65.53
34893;BME280;21106;52.240;20.902;2023-07-13T03:49:46;99661.59;;;21.58;65.37
34893;BME280;21106;52.240;20.902;2023-07-13T03:55:20;99662.84;;;21.65;65.43
34893;BME280;21106;52.240;20.902;2023-07-13T04:00:39;99667.02;;;21.70;65.55
34893;BME280;21106;52.240;20.902;2023-07-13T04:06:23;99668.83;;;21.81;65.61
34893;BME280;21106;52.240;20.902;2023-07-13T04:11:32;99674.64;;;22.02;65.65
34893;BME280;21106;52.240;20.902;2023-07-13T04:16:40;99682.50;;;22.35;65.47
34893;BME280;21106;52.240;20.902;2023-07-13T04:21:47;99697.23;;;22.78;65.24
34893;BME280;21106;52.240;20.902;2023-07-13T04:26:54;99699.11;;;23.24;64.73
34893;BME280;21106;52.240;20.902;2023-07-13T04:32:05;99716.13;;;23.73;64.16
34893;BME280;21106;52.240;20.902;2023-07-13T04:37:33;99717.40;;;23.99;63.19
34893;BME280;21106;52.240;20.902;2023-07-13T04:43:01;99713.33;;;24.16;62.63
34893;BME280;21106;52.240;20.902;2023-07-13T04:48:32;99727.00;;;24.25;62.16
34893;BME280;21106;52.240;20.902;2023-07-13T04:54:24;99727.17;;;24.27;61.82
34893;BME280;21106;52.240;20.902;2023-07-13T05:00:14;99717.88;;;24.24;61.45
34893;BME280;21106;52.240;20.902;2023-07-13T05:05:54;99721.80;;;24.23;61.50
34893;BME280;21106;52.240;20.902;2023-07-13T05:11:05;99733.80;;;24.22;61.42
34893;BME280;21106;52.240;20.902;2023-07-13T05:21:44;99742.02;;;24.21;61.49
34893;BME280;21106;52.240;20.902;2023-07-13T05:26:54;99754.56;;;24.26;61.49
34893;BME280;21106;52.240;20.902;2023-07-13T05:32:32;99772.52;;;24.22;61.62
34893;BME280;21106;52.240;20.902;2023-07-13T05:38:55;99776.45;;;24.22;61.74
34893;BME280;21106;52.240;20.902;2023-07-13T05:44:02;99778.15;;;24.32;61.95
34893;BME280;21106;52.240;20.902;2023-07-13T05:49:17;99785.07;;;24.41;61.74
34893;BME280;21106;52.240;20.902;2023-07-13T05:54:24;99783.96;;;24.53;61.65
34893;BME280;21106;52.240;20.902;2023-07-13T05:59:30;99778.55;;;24.62;61.43
34893;BME280;21106;52.240;20.902;2023-07-13T06:15:41;99763.56;;;24.84;61.12
34893;BME280;21106;52.240;20.902;2023-07-13T06:22:12;99765.23;;;25.09;60.92
34893;BME280;21106;52.240;20.902;2023-07-13T06:32:51;99758.93;;;25.63;59.82
34893;BME280;21106;52.240;20.902;2023-07-13T06:38:01;99761.94;;;26.01;59.29
34893;BME280;21106;52.240;20.902;2023-07-13T06:43:08;99765.32;;;26.50;58.07
34893;BME280;21106;52.240;20.902;2023-07-13T06:48:49;99761.02;;;26.88;56.76
34893;BME280;21106;52.240;20.902;2023-07-13T06:54:45;99751.21;;;26.97;55.93
34893;BME280;21106;52.240;20.902;2023-07-13T06:59:53;99750.59;;;27.14;53.55
34893;BME280;21106;52.240;20.902;2023-07-13T07:05:02;99743.14;;;27.45;49.42
34893;BME280;21106;52.240;20.902;2023-07-13T07:10:11;99739.22;;;27.72;46.84
34893;BME280;21106;52.240;20.902;2023-07-13T07:15:18;99742.84;;;27.84;48.34
34893;BME280;21106;52.240;20.902;2023-07-13T07:20:26;99742.98;;;27.86;47.94
34893;BME280;21106;52.240;20.902;2023-07-13T07:25:33;99743.84;;;28.06;45.27
34893;BME280;21106;52.240;20.902;2023-07-13T07:30:42;99745.77;;;28.29;43.33
34893;BME280;21106;52.240;20.902;2023-07-13T07:35:51;99749.44;;;28.47;43.01
34893;BME280;21106;52.240;20.902;2023-07-13T07:41:02;99745.41;;;28.64;42.76
34893;BME280;21106;52.240;20.902;2023-07-13T07:46:08;99750.66;;;28.84;43.19
34893;BME280;21106;52.240;20.902;2023-07-13T07:51:15;99750.19;;;28.91;42.79
34893;BME280;21106;52.240;20.902;2023-07-13T07:56:21;99753.58;;;29.02;41.40
34893;BME280;21106;52.240;20.902;2023-07-13T08:01:27;99755.23;;;29.15;40.88
34893;BME280;21106;52.240;20.902;2023-07-13T08:06:34;99755.86;;;29.26;41.00
34893;BME280;21106;52.240;20.902;2023-07-13T08:11:40;99753.58;;;29.29;40.07
34893;BME280;21106;52.240;20.902;2023-07-13T08:16:47;99759.49;;;29.26;39.79
34893;BME280;21106;52.240;20.902;2023-07-13T08:21:53;99758.28;;;29.25;39.94
34893;BME280;21106;52.240;20.902;2023-07-13T08:26:59;99757.55;;;29.24;39.90
34893;BME280;21106;52.240;20.902;2023-07-13T08:32:07;99750.78;;;29.22;39.59
34893;BME280;21106;52.240;20.902;2023-07-13T08:37:18;99759.02;;;29.09;39.49
34893;BME280;21106;52.240;20.902;2023-07-13T08:42:50;99756.05;;;28.92;39.85
34893;BME280;21106;52.240;20.902;2023-07-13T08:48:38;99767.20;;;28.72;40.83
34893;BME280;21106;52.240;20.902;2023-07-13T08:54:57;99770.09;;;28.53;41.23
34893;BME280;21106;52.240;20.902;2023-07-13T09:00:17;99784.09;;;28.52;41.76
34893;BME280;21106;52.240;20.902;2023-07-13T09:05:41;99783.79;;;28.54;41.98
34893;BME280;21106;52.240;20.902;2023-07-13T09:16:43;99779.62;;;28.78;41.78
34893;BME280;21106;52.240;20.902;2023-07-13T09:28:34;99765.66;;;29.07;42.08
34893;BME280;21106;52.240;20.902;2023-07-13T09:34:55;99777.83;;;29.11;41.29
34893;BME280;21106;52.240;20.902;2023-07-13T09:48:24;99759.89;;;27.71;42.69
34893;BME280;21106;52.240;20.902;2023-07-13T10:00:07;99751.03;;;26.18;45.03
34893;BME280;21106;52.240;20.902;2023-07-13T10:06:00;99740.88;;;25.84;45.77
34893;BME280;21106;52.240;20.902;2023-07-13T10:11:26;99737.45;;;25.43;46.39
34893;BME280;21106;52.240;20.902;2023-07-13T10:16:57;99734.48;;;25.07;46.80
34893;BME280;21106;52.240;20.902;2023-07-13T10:34:36;99754.73;;;24.04;51.53
34893;BME280;21106;52.240;20.902;2023-07-13T10:39:50;99780.69;;;23.63;53.59
34893;BME280;21106;52.240;20.902;2023-07-13T10:44:59;99806.09;;;23.27;54.71
34893;BME280;21106;52.240;20.902;2023-07-13T10:50:17;99836.03;;;23.11;55.70
34893;BME280;21106;52.240;20.902;2023-07-13T10:55:56;99832.96;;;23.03;56.40
34893;BME280;21106;52.240;20.902;2023-07-13T11:01:19;99825.41;;;22.82;56.91
34893;BME280;21106;52.240;20.902;2023-07-13T11:36:20;99857.27;;;21.68;60.03
34893;BME280;21106;52.240;20.902;2023-07-13T11:42:01;99871.38;;;21.52;60.07
34893;BME280;21106;52.240;20.902;2023-07-13T11:48:29;99885.04;;;21.41;60.49
34893;BME280;21106;52.240;20.902;2023-07-13T11:54:01;99878.38;;;21.37;60.98
34893;BME280;21106;52.240;20.902;2023-07-13T11:59:12;99882.91;;;21.38;61.32
34893;BME280;21106;52.240;20.902;2023-07-13T12:04:44;99882.79;;;21.45;61.64
34893;BME280;21106;52.240;20.902;2023-07-13T12:15:57;99855.96;;;21.63;61.57
34893;BME280;21106;52.240;20.902;2023-07-13T12:21:37;99858.30;;;21.67;62.06
34893;BME280;21106;52.240;20.902;2023-07-13T12:27:03;99853.42;;;21.73;63.23
34893;BME280;21106;52.240;20.902;2023-07-13T13:29:25;99854.71;;;22.30;62.95
34893;BME280;21106;52.240;20.902;2023-07-13T13:58:55;99870.21;;;22.79;63.28
34893;BME280;21106;52.240;20.902;2023-07-13T14:16:46;99885.67;;;22.99;63.41
34893;BME280;21106;52.240;20.902;2023-07-13T14:22:04;99874.94;;;23.06;63.12
34893;BME280;21106;52.240;20.902;2023-07-13T14:39:44;99878.06;;;23.09;62.60
34893;BME280;21106;52.240;20.902;2023-07-13T14:45:17;99873.90;;;23.05;62.96
34893;BME280;21106;52.240;20.902;2023-07-13T14:50:33;99865.64;;;22.93;63.97
34893;BME280;21106;52.240;20.902;2023-07-13T14:55:41;99869.94;;;22.77;64.70
34893;BME280;21106;52.240;20.902;2023-07-13T15:00:51;99888.38;;;22.72;65.11
34893;BME280;21106;52.240;20.902;2023-07-13T15:06:12;99891.77;;;22.77;64.94
34893;BME280;21106;52.240;20.902;2023-07-13T15:11:18;99899.26;;;22.81;64.77
34893;BME280;21106;52.240;20.902;2023-07-13T15:16:25;99897.95;;;22.88;64.77
34893;BME280;21106;52.240;20.902;2023-07-13T15:21:31;99896.83;;;22.94;64.67
34893;BME280;21106;52.240;20.902;2023-07-13T15:26:40;99912.15;;;22.99;64.73
34893;BME280;21106;52.240;20.902;2023-07-13T15:31:49;99899.35;;;23.00;64.77
34893;BME280;21106;52.240;20.902;2023-07-13T15:36:58;99902.59;;;22.98;64.77
34893;BME280;21106;52.240;20.902;2023-07-13T15:42:13;99899.44;;;23.01;64.63
34893;BME280;21106;52.240;20.902;2023-07-13T15:47:20;99901.06;;;23.01;64.83
34893;BME280;21106;52.240;20.902;2023-07-13T15:52:34;99904.36;;;23.01;64.71
34893;BME280;21106;52.240;20.902;2023-07-13T15:58:10;99905.73;;;23.00;64.57
34893;BME280;21106;52.240;20.902;2023-07-13T16:03:20;99909.59;;;22.97;64.83
34893;BME280;21106;52.240;20.902;2023-07-13T16:08:30;99906.34;;;22.96;64.75
34893;BME280;21106;52.240;20.902;2023-07-13T16:13:43;99902.31;;;22.98;64.76
34893;BME280;21106;52.240;20.902;2023-07-13T16:18:58;99910.15;;;22.99;64.76
34893;BME280;21106;52.240;20.902;2023-07-13T16:24:19;99911.13;;;23.00;64.60
34893;BME280;21106;52.240;20.902;2023-07-13T16:30:31;99917.89;;;23.04;64.59
34893;BME280;21106;52.240;20.902;2023-07-13T16:35:50;99920.70;;;23.05;64.55
34893;BME280;21106;52.240;20.902;2023-07-13T16:41:00;99918.48;;;23.05;64.36
34893;BME280;21106;52.240;20.902;2023-07-13T16:46:10;99919.34;;;23.06;64.39
34893;BME280;21106;52.240;20.902;2023-07-13T16:51:17;99918.41;;;23.04;64.50
34893;BME280;21106;52.240;20.902;2023-07-13T16:56:27;99917.79;;;23.07;64.54
34893;BME280;21106;52.240;20.902;2023-07-13T17:01:36;99920.11;;;23.09;64.57
34893;BME280;21106;52.240;20.902;2023-07-13T17:06:42;99922.61;;;23.08;64.39
34893;BME280;21106;52.240;20.902;2023-07-13T17:11:54;99929.41;;;23.07;64.09
34893;BME280;21106;52.240;20.902;2023-07-13T17:17:01;99933.08;;;23.04;63.95
34893;BME280;21106;52.240;20.902;2023-07-13T17:22:11;99940.83;;;23.02;63.86
34893;BME280;21106;52.240;20.902;2023-07-13T17:27:24;99949.63;;;23.00;63.79
34893;BME280;21106;52.240;20.902;2023-07-13T17:32:31;99950.53;;;23.00;63.77
34893;BME280;21106;52.240;20.902;2023-07-13T17:37:37;99951.38;;;22.99;63.59
34893;BME280;21106;52.240;20.902;2023-07-13T17:42:47;99949.25;;;22.97;63.65
34893;BME280;21106;52.240;20.902;2023-07-13T17:47:55;99944.28;;;22.98;63.65
34893;BME280;21106;52.240;20.902;2023-07-13T17:53:03;99942.27;;;22.97;63.49
34893;BME280;21106;52.240;20.902;2023-07-13T17:58:18;99939.56;;;22.95;63.58
34893;BME280;21106;52.240;20.902;2023-07-13T18:03:27;99924.99;;;22.94;63.54
34893;BME280;21106;52.240;20.902;2023-07-13T18:08:37;99925.77;;;22.93;63.58
34893;BME280;21106;52.240;20.902;2023-07-13T18:13:45;99931.45;;;22.92;63.31
34893;BME280;21106;52.240;20.902;2023-07-13T18:18:55;99924.16;;;22.91;63.15
34893;BME280;21106;52.240;20.902;2023-07-13T18:24:55;99917.77;;;22.86;62.95
34893;BME280;21106;52.240;20.902;2023-07-13T18:30:54;99927.33;;;22.81;62.81
34893;BME280;21106;52.240;20.902;2023-07-13T18:36:04;99922.61;;;22.81;62.79
34893;BME280;21106;52.240;20.902;2023-07-13T18:41:21;99930.38;;;22.79;62.97
34893;BME280;21106;52.240;20.902;2023-07-13T18:46:38;99933.84;;;22.76;62.76
34893;BME280;21106;52.240;20.902;2023-07-13T18:51:50;99938.33;;;22.74;62.89
34893;BME280;21106;52.240;20.902;2023-07-13T18:57:09;99945.11;;;22.71;62.72
34893;BME280;21106;52.240;20.902;2023-07-13T19:02:17;99948.05;;;22.70;62.99
34893;BME280;21106;52.240;20.902;2023-07-13T19:07:27;99946.61;;;22.66;62.84
34893;BME280;21106;52.240;20.902;2023-07-13T19:12:33;99943.18;;;22.62;63.05
34893;BME280;21106;52.240;20.902;2023-07-13T19:17:40;99941.71;;;22.58;63.18
34893;BME280;21106;52.240;20.902;2023-07-13T19:22:47;99947.24;;;22.55;63.26
34893;BME280;21106;52.240;20.902;2023-07-13T19:27:58;99956.27;;;22.52;63.44
34893;BME280;21106;52.240;20.902;2023-07-13T19:33:05;99956.14;;;22.48;63.47
34893;BME280;21106;52.240;20.902;2023-07-13T19:38:14;99957.36;;;22.44;63.51
34893;BME280;21106;52.240;20.902;2023-07-13T19:43:21;99959.50;;;22.41;63.56
34893;BME280;21106;52.240;20.902;2023-07-13T19:48:29;99968.40;;;22.35;63.79
34893;BME280;21106;52.240;20.902;2023-07-13T19:53:35;99976.13;;;22.30;63.98
34893;BME280;21106;52.240;20.902;2023-07-13T19:58:44;99979.88;;;22.26;64.29
34893;BME280;21106;52.240;20.902;2023-07-13T20:14:51;99996.70;;;22.14;64.46
34893;BME280;21106;52.240;20.902;2023-07-13T20:19:57;99997.45;;;22.10;64.37
34893;BME280;21106;52.240;20.902;2023-07-13T20:25:13;100001.58;;;22.08;64.59
34893;BME280;21106;52.240;20.902;2023-07-13T20:30:24;100000.44;;;22.05;64.61
34893;BME280;21106;52.240;20.902;2023-07-13T20:35:33;100005.86;;;22.00;64.67
34893;BME280;21106;52.240;20.902;2023-07-13T20:40:40;100010.27;;;21.95;64.59
34893;BME280;21106;52.240;20.902;2023-07-13T20:45:47;100011.65;;;21.89;64.75
34893;BME280;21106;52.240;20.902;2023-07-13T20:50:58;100017.50;;;21.83;64.58
34893;BME280;21106;52.240;20.902;2023-07-13T20:56:13;100021.02;;;21.79;64.67
34893;BME280;21106;52.240;20.902;2023-07-13T21:01:29;100018.17;;;21.77;64.64
34893;BME280;21106;52.240;20.902;2023-07-13T21:06:57;100017.17;;;21.71;64.60
34893;BME280;21106;52.240;20.902;2023-07-13T21:12:04;100021.34;;;21.68;64.87
34893;BME280;21106;52.240;20.902;2023-07-13T21:17:13;100027.48;;;21.66;64.97
34893;BME280;21106;52.240;20.902;2023-07-13T21:22:21;100024.31;;;21.61;64.76
34893;BME280;21106;52.240;20.902;2023-07-13T21:27:27;100024.55;;;21.57;65.09
34893;BME280;21106;52.240;20.902;2023-07-13T21:32:34;100031.52;;;21.54;65.17
34893;BME280;21106;52.240;20.902;2023-07-13T21:37:40;100042.72;;;21.51;65.29
34893;BME280;21106;52.240;20.902;2023-07-13T21:42:47;100043.30;;;21.47;65.57
34893;BME280;21106;52.240;20.902;2023-07-13T21:47:54;100042.75;;;21.45;65.59
34893;BME280;21106;52.240;20.902;2023-07-13T21:53:08;100045.70;;;21.41;65.79
34893;BME280;21106;52.240;20.902;2023-07-13T21:58:24;100039.83;;;21.38;66.08
34893;BME280;21106;52.240;20.902;2023-07-13T22:03:36;100041.56;;;21.35;66.20
34893;BME280;21106;52.240;20.902;2023-07-13T22:08:43;100037.30;;;21.33;66.27
34893;BME280;21106;52.240;20.902;2023-07-13T22:13:51;100033.35;;;21.31;66.39
34893;BME280;21106;52.240;20.902;2023-07-13T22:18:59;100035.82;;;21.28;66.55
34893;BME280;21106;52.240;20.902;2023-07-13T22:24:17;100041.98;;;21.25;66.54
34893;BME280;21106;52.240;20.902;2023-07-13T22:29:27;100053.31;;;21.23;66.86
34893;BME280;21106;52.240;20.902;2023-07-13T22:34:35;100042.00;;;21.20;66.95
34893;BME280;21106;52.240;20.902;2023-07-13T22:39:44;100043.88;;;21.17;67.16
34893;BME280;21106;52.240;20.902;2023-07-13T22:44:50;100036.21;;;21.14;67.14
34893;BME280;21106;52.240;20.902;2023-07-13T22:49:56;100021.27;;;21.11;67.55
34893;BME280;21106;52.240;20.902;2023-07-13T22:55:11;100029.85;;;21.08;67.60
34893;BME280;21106;52.240;20.902;2023-07-13T23:00:18;100032.09;;;21.04;67.71
34893;BME280;21106;52.240;20.902;2023-07-13T23:05:24;100028.38;;;21.03;67.68
34893;BME280;21106;52.240;20.902;2023-07-13T23:10:33;100027.31;;;21.00;67.89
34893;BME280;21106;52.240;20.902;2023-07-13T23:15:39;100026.84;;;20.98;68.07
34893;BME280;21106;52.240;20.902;2023-07-13T23:20:45;100023.52;;;20.96;68.16
34893;BME280;21106;52.240;20.902;2023-07-13T23:25:52;100022.46;;;20.93;68.18
34893;BME280;21106;52.240;20.902;2023-07-13T23:30:59;100025.27;;;20.91;68.33
34893;BME280;21106;52.240;20.902;2023-07-13T23:36:13;100029.34;;;20.89;68.41
34893;BME280;21106;52.240;20.902;2023-07-13T23:41:21;100035.84;;;20.89;68.40
34893;BME280;21106;52.240;20.902;2023-07-13T23:51:50;100043.45;;;20.81;68.80
34893;BME280;21106;52.240;20.902;2023-07-13T23:56:57;100049.46;;;20.76;68.75
